createdAt,value
2017-02-24T00:00:52.785Z,8
2017-02-24T00:01:52.775Z,8
2017-02-24T00:02:52.713Z,8
2017-02-24T00:03:52.646Z,8
2017-02-24T00:04:52.586Z,8
2017-02-24T00:05:52.638Z,8
2017-02-24T00:06:52.465Z,8
2017-02-24T00:07:52.426Z,4
2017-02-24T00:08:52.345Z,4
2017-02-24T00:09:51.914Z,4
2017-02-24T00:10:52.329Z,8
2017-02-24T00:11:52.199Z,8
2017-02-24T00:12:52.091Z,8
2017-02-24T00:13:52.038Z,8
2017-02-24T00:14:51.980Z,8
2017-02-24T00:15:52.052Z,8
2017-02-24T00:16:51.899Z,8
2017-02-24T00:17:51.814Z,8
2017-02-24T00:18:51.769Z,8
2017-02-24T00:19:51.269Z,8
2017-02-24T00:20:51.672Z,8
2017-02-24T00:21:51.539Z,8
2017-02-24T00:22:51.465Z,8
2017-02-24T00:23:51.036Z,8
2017-02-24T00:24:51.384Z,8
2017-02-24T00:25:51.292Z,8
2017-02-24T00:26:51.224Z,8
2017-02-24T00:27:50.774Z,8
2017-02-24T00:28:50.717Z,8
2017-02-24T00:29:51.061Z,8
2017-02-24T00:30:50.985Z,8
2017-02-24T00:31:51.135Z,8
2017-02-24T00:32:50.869Z,8
2017-02-24T00:33:50.800Z,8
2017-02-24T00:34:50.744Z,0
2017-02-24T00:35:50.662Z,0
2017-02-24T00:36:50.670Z,0
2017-02-24T00:37:50.589Z,0
2017-02-24T00:38:50.492Z,0
2017-02-24T00:39:50.415Z,0
2017-02-24T00:40:50.329Z,0
2017-02-24T00:41:50.310Z,0
2017-02-24T00:42:50.456Z,0
2017-02-24T00:43:50.179Z,0
2017-02-24T00:44:50.108Z,0
2017-02-24T00:45:50.056Z,0
2017-02-24T00:46:49.994Z,0
2017-02-24T00:47:49.936Z,0
2017-02-24T00:48:49.867Z,0
2017-02-24T00:49:49.421Z,0
2017-02-24T00:50:49.073Z,0
2017-02-24T00:51:49.679Z,0
2017-02-24T00:52:49.689Z,0
2017-02-24T00:53:49.231Z,0
2017-02-24T00:54:49.522Z,0
2017-02-24T00:55:49.420Z,0
2017-02-24T00:56:48.979Z,0
2017-02-24T00:57:49.317Z,0
2017-02-24T00:58:49.238Z,0
2017-02-24T00:59:49.183Z,0
2017-02-24T01:02:53.808Z,0
2017-02-24T01:03:04.384Z,0
2017-02-24T01:04:04.319Z,0
2017-02-24T01:05:04.262Z,0
2017-02-24T01:06:04.199Z,0
2017-02-24T01:07:04.148Z,0
2017-02-24T01:08:04.078Z,0
2017-02-24T01:09:04.002Z,0
2017-02-24T01:10:03.563Z,0
2017-02-24T01:11:03.872Z,0
2017-02-24T01:12:03.839Z,0
2017-02-24T01:13:03.401Z,0
2017-02-24T01:14:03.698Z,0
2017-02-24T01:15:03.257Z,0
2017-02-24T01:16:03.188Z,0
2017-02-24T01:17:03.493Z,0
2017-02-24T01:18:03.457Z,0
2017-02-24T01:19:03.416Z,0
2017-02-24T01:20:03.316Z,0
2017-02-24T01:21:03.269Z,0
2017-02-24T01:22:03.189Z,0
2017-02-24T01:23:03.143Z,0
2017-02-24T01:24:03.088Z,0
2017-02-24T01:25:03.201Z,0
2017-02-24T01:26:02.959Z,0
2017-02-24T01:27:02.914Z,0
2017-02-24T01:28:02.840Z,0
2017-02-24T01:29:02.764Z,0
2017-02-24T01:30:02.700Z,0
2017-02-24T01:31:02.800Z,0
2017-02-24T01:32:02.581Z,0
2017-02-24T01:33:02.552Z,0
2017-02-24T01:34:02.168Z,0
2017-02-24T01:35:02.389Z,0
2017-02-24T01:36:02.491Z,0
2017-02-24T01:37:02.256Z,0
2017-02-24T01:38:02.206Z,0
2017-02-24T01:39:02.144Z,0
2017-02-24T01:40:02.077Z,0
2017-02-24T01:41:02.135Z,0
2017-02-24T01:42:01.960Z,0
2017-02-24T01:43:01.497Z,0
2017-02-24T01:44:01.832Z,0
2017-02-24T01:45:01.765Z,0
2017-02-24T01:46:01.734Z,0
2017-02-24T01:47:01.648Z,0
2017-02-24T01:48:01.598Z,0
2017-02-24T01:49:01.146Z,0
2017-02-24T01:50:01.450Z,0
2017-02-24T01:51:01.403Z,0
2017-02-24T01:52:01.345Z,0
2017-02-24T01:53:01.282Z,0
2017-02-24T01:54:01.200Z,0
2017-02-24T01:55:01.177Z,0
2017-02-24T01:56:01.099Z,0
2017-02-24T01:57:01.055Z,0
2017-02-24T01:58:00.580Z,0
2017-02-24T01:59:00.883Z,0
2017-02-24T02:00:00.841Z,0
2017-02-24T02:01:00.423Z,0
2017-02-24T02:02:00.721Z,0
2017-02-24T02:03:00.744Z,0
2017-02-24T02:04:00.576Z,0
2017-02-24T02:05:00.531Z,0
2017-02-24T02:06:00.481Z,0
2017-02-24T02:07:00.408Z,0
2017-02-24T02:08:00.360Z,0
2017-02-24T02:09:00.298Z,0
2017-02-24T02:09:59.828Z,0
2017-02-24T02:11:00.143Z,0
2017-02-24T02:12:00.093Z,0
2017-02-24T02:13:00.110Z,0
2017-02-24T02:13:59.968Z,0
2017-02-24T02:14:59.913Z,0
2017-02-24T02:16:00.082Z,0
2017-02-24T02:16:59.775Z,0
2017-02-24T02:17:59.710Z,0
2017-02-24T02:18:59.657Z,0
2017-02-24T02:19:59.597Z,0
2017-02-24T02:20:59.628Z,0
2017-02-24T02:21:59.484Z,0
2017-02-24T02:22:59.400Z,0
2017-02-24T02:23:59.363Z,0
2017-02-24T02:24:58.922Z,0
2017-02-24T02:25:59.325Z,0
2017-02-24T02:26:59.183Z,0
2017-02-24T02:27:59.094Z,0
2017-02-24T02:28:59.044Z,0
2017-02-24T02:29:58.997Z,0
2017-02-24T02:30:59.007Z,0
2017-02-24T02:31:58.892Z,0
2017-02-24T02:32:58.839Z,0
2017-02-24T02:33:58.722Z,0
2017-02-24T02:34:58.664Z,0
2017-02-24T02:35:58.599Z,0
2017-02-24T02:36:58.551Z,0
2017-02-24T02:37:58.094Z,0
2017-02-24T02:38:58.024Z,0
2017-02-24T02:39:58.374Z,0
2017-02-24T02:40:58.289Z,0
2017-02-24T02:41:58.230Z,0
2017-02-24T02:42:58.174Z,0
2017-02-24T02:43:58.134Z,0
2017-02-24T02:44:58.041Z,0
2017-02-24T02:45:57.990Z,0
2017-02-24T02:46:57.953Z,0
2017-02-24T02:47:57.849Z,0
2017-02-24T02:48:57.803Z,0
2017-02-24T02:49:57.742Z,0
2017-02-24T02:50:57.681Z,0
2017-02-24T02:51:57.269Z,0
2017-02-24T02:52:57.536Z,0
2017-02-24T02:53:57.115Z,0
2017-02-24T02:54:57.428Z,0
2017-02-24T02:55:57.385Z,0
2017-02-24T02:56:57.313Z,0
2017-02-24T02:57:56.932Z,0
2017-02-24T02:58:57.170Z,0
2017-02-24T02:59:57.113Z,0
2017-02-24T03:00:57.047Z,0
2017-02-24T03:01:57.027Z,0
2017-02-24T03:02:56.918Z,0
2017-02-24T03:03:56.880Z,0
2017-02-24T03:04:56.061Z,0
2017-02-24T03:05:56.735Z,0
2017-02-24T03:06:56.692Z,0
2017-02-24T03:07:56.610Z,0
2017-02-24T03:08:56.574Z,0
2017-02-24T03:09:56.512Z,0
2017-02-24T03:10:56.452Z,0
2017-02-24T03:11:56.375Z,0
2017-02-24T03:12:56.331Z,0
2017-02-24T03:13:55.863Z,0
2017-02-24T03:14:55.804Z,0
2017-02-24T03:15:56.222Z,0
2017-02-24T03:16:55.670Z,0
2017-02-24T03:17:55.986Z,0
2017-02-24T03:18:55.941Z,0
2017-02-24T03:19:55.914Z,0
2017-02-24T03:20:55.829Z,0
2017-02-24T03:21:55.748Z,0
2017-02-24T03:22:55.308Z,0
2017-02-24T03:23:55.631Z,0
2017-02-24T03:24:55.586Z,0
2017-02-24T03:25:55.511Z,0
2017-02-24T03:26:55.431Z,0
2017-02-24T03:27:55.420Z,0
2017-02-24T03:28:54.919Z,0
2017-02-24T03:29:55.245Z,0
2017-02-24T03:30:55.181Z,0
2017-02-24T03:31:55.132Z,0
2017-02-24T03:32:55.062Z,0
2017-02-24T03:33:54.607Z,0
2017-02-24T03:34:54.933Z,0
2017-02-24T03:35:54.483Z,0
2017-02-24T03:36:54.807Z,0
2017-02-24T03:37:54.382Z,0
2017-02-24T03:38:54.784Z,0
2017-02-24T03:39:54.622Z,0
2017-02-24T03:40:54.602Z,0
2017-02-24T03:41:54.118Z,0
2017-02-24T03:42:54.468Z,0
2017-02-24T03:43:54.389Z,0
2017-02-24T03:44:54.341Z,0
2017-02-24T03:45:54.245Z,0
2017-02-24T03:46:54.197Z,0
2017-02-24T03:47:54.123Z,0
2017-02-24T03:48:54.060Z,0
2017-02-24T03:49:54.021Z,0
2017-02-24T03:50:53.947Z,0
2017-02-24T03:51:53.899Z,0
2017-02-24T03:52:53.817Z,0
2017-02-24T03:53:53.393Z,0
2017-02-24T03:54:53.705Z,0
2017-02-24T03:55:53.641Z,0
2017-02-24T03:56:53.579Z,0
2017-02-24T03:57:53.512Z,0
2017-02-24T03:58:53.067Z,0
2017-02-24T03:59:53.389Z,0
2017-02-24T04:00:53.310Z,0
2017-02-24T04:01:52.483Z,0
2017-02-24T04:02:53.191Z,0
2017-02-24T04:03:53.143Z,0
2017-02-24T04:04:53.066Z,0
2017-02-24T04:05:53.009Z,0
2017-02-24T04:06:52.948Z,0
2017-02-24T04:07:52.881Z,0
2017-02-24T04:08:52.453Z,0
2017-02-24T04:09:52.753Z,0
2017-02-24T04:10:52.697Z,0
2017-02-24T04:11:52.649Z,0
2017-02-24T04:12:52.580Z,0
2017-02-24T04:13:52.515Z,0
2017-02-24T04:14:52.058Z,0
2017-02-24T04:15:52.382Z,0
2017-02-24T04:16:51.935Z,0
2017-02-24T04:17:52.261Z,0
2017-02-24T04:18:51.848Z,0
2017-02-24T04:19:52.148Z,0
2017-02-24T04:20:52.091Z,0
2017-02-24T04:21:52.014Z,0
2017-02-24T04:22:51.969Z,0
2017-02-24T04:23:51.893Z,0
2017-02-24T04:24:51.836Z,0
2017-02-24T04:25:51.800Z,0
2017-02-24T04:26:51.433Z,0
2017-02-24T04:27:51.661Z,0
2017-02-24T04:28:51.582Z,0
2017-02-24T04:29:51.523Z,0
2017-02-24T04:30:51.455Z,0
2017-02-24T04:31:51.388Z,0
2017-02-24T04:32:51.333Z,0
2017-02-24T04:33:51.270Z,0
2017-02-24T04:34:51.211Z,0
2017-02-24T04:35:51.165Z,0
2017-02-24T04:36:51.098Z,0
2017-02-24T04:37:51.024Z,0
2017-02-24T04:38:50.952Z,0
2017-02-24T04:39:50.913Z,0
2017-02-24T04:40:50.451Z,0
2017-02-24T04:41:50.396Z,0
2017-02-24T04:42:50.713Z,0
2017-02-24T04:43:50.641Z,0
2017-02-24T04:44:50.599Z,0
2017-02-24T04:45:50.536Z,0
2017-02-24T04:46:50.475Z,0
2017-02-24T04:47:50.416Z,0
2017-02-24T04:48:50.338Z,0
2017-02-24T04:49:49.886Z,0
2017-02-24T04:50:50.212Z,0
2017-02-24T04:51:50.142Z,0
2017-02-24T04:52:50.097Z,0
2017-02-24T04:53:50.032Z,0
2017-02-24T04:54:49.969Z,0
2017-02-24T04:55:49.966Z,0
2017-02-24T04:56:49.845Z,0
2017-02-24T04:57:49.825Z,0
2017-02-24T04:58:49.723Z,0
2017-02-24T04:59:49.660Z,0
2017-02-24T05:00:49.607Z,0
2017-02-24T05:01:49.542Z,0
2017-02-24T05:02:49.691Z,0
2017-02-24T05:03:49.409Z,0
2017-02-24T05:04:49.344Z,0
2017-02-24T05:05:49.311Z,0
2017-02-24T05:06:49.243Z,0
2017-02-24T05:07:49.161Z,0
2017-02-24T05:08:49.136Z,0
2017-02-24T05:09:49.038Z,0
2017-02-24T05:10:48.995Z,0
2017-02-24T05:11:48.934Z,0
2017-02-24T05:12:48.853Z,0
2017-02-24T05:13:48.815Z,0
2017-02-24T05:14:48.718Z,0
2017-02-24T05:15:48.664Z,0
2017-02-24T05:16:48.598Z,0
2017-02-24T05:17:48.148Z,0
2017-02-24T05:18:48.109Z,0
2017-02-24T05:19:48.062Z,0
2017-02-24T05:20:48.346Z,0
2017-02-24T05:21:48.300Z,0
2017-02-24T05:22:48.228Z,0
2017-02-24T05:23:47.774Z,0
2017-02-24T05:24:48.109Z,0
2017-02-24T05:25:48.095Z,0
2017-02-24T05:26:47.585Z,0
2017-02-24T05:27:47.919Z,0
2017-02-24T05:28:47.501Z,0
2017-02-24T05:29:47.807Z,0
2017-02-24T05:30:47.765Z,0
2017-02-24T05:31:47.677Z,0
2017-02-24T05:32:47.603Z,0
2017-02-24T05:33:47.543Z,0
2017-02-24T05:34:47.104Z,0
2017-02-24T05:35:47.444Z,0
2017-02-24T05:36:47.359Z,0
2017-02-24T05:37:47.322Z,0
2017-02-24T05:38:46.861Z,0
2017-02-24T05:39:47.166Z,0
2017-02-24T05:40:47.152Z,0
2017-02-24T05:41:47.087Z,0
2017-02-24T05:42:46.980Z,0
2017-02-24T05:43:46.924Z,0
2017-02-24T05:44:46.908Z,0
2017-02-24T05:45:46.808Z,0
2017-02-24T05:46:46.736Z,0
2017-02-24T05:47:46.691Z,0
2017-02-24T05:48:46.711Z,0
2017-02-24T05:49:46.553Z,0
2017-02-24T05:50:46.481Z,0
2017-02-24T05:51:46.467Z,0
2017-02-24T05:52:45.983Z,0
2017-02-24T05:53:46.299Z,0
2017-02-24T05:54:46.258Z,0
2017-02-24T05:55:46.203Z,0
2017-02-24T05:56:46.164Z,0
2017-02-24T05:57:46.054Z,0
2017-02-24T05:58:46.030Z,0
2017-02-24T05:59:45.941Z,0
2017-02-24T06:00:45.879Z,0
2017-02-24T06:01:45.820Z,0
2017-02-24T06:02:45.377Z,0
2017-02-24T06:03:45.681Z,0
2017-02-24T06:04:45.626Z,0
2017-02-24T06:05:45.555Z,0
2017-02-24T06:06:45.506Z,0
2017-02-24T06:07:45.435Z,0
2017-02-24T06:08:45.433Z,0
2017-02-24T06:09:45.330Z,4
2017-02-24T06:10:45.364Z,4
2017-02-24T06:11:45.202Z,4
2017-02-24T06:12:45.132Z,4
2017-02-24T06:13:45.062Z,4
2017-02-24T06:14:45.005Z,4
2017-02-24T06:15:44.971Z,4
2017-02-24T06:16:44.869Z,4
2017-02-24T06:17:44.814Z,4
2017-02-24T06:18:44.767Z,4
2017-02-24T06:19:44.681Z,0
2017-02-24T06:20:44.630Z,4
2017-02-24T06:21:44.202Z,4
2017-02-24T06:22:44.495Z,4
2017-02-24T06:23:44.436Z,4
2017-02-24T06:24:44.386Z,4
2017-02-24T06:25:44.311Z,4
2017-02-24T06:26:44.252Z,4
2017-02-24T06:27:44.207Z,4
2017-02-24T06:28:44.148Z,4
2017-02-24T06:29:44.069Z,4
2017-02-24T06:30:44.015Z,4
2017-02-24T06:31:43.956Z,4
2017-02-24T06:32:43.882Z,4
2017-02-24T06:33:43.869Z,4
2017-02-24T06:34:43.776Z,4
2017-02-24T06:35:43.694Z,4
2017-02-24T06:36:43.632Z,4
2017-02-24T06:37:43.571Z,4
2017-02-24T06:38:43.515Z,4
2017-02-24T06:39:43.456Z,4
2017-02-24T06:40:43.004Z,4
2017-02-24T06:41:43.330Z,4
2017-02-24T06:42:43.265Z,4
2017-02-24T06:43:43.200Z,4
2017-02-24T06:44:43.153Z,4
2017-02-24T06:45:42.693Z,4
2017-02-24T06:46:43.024Z,4
2017-02-24T06:47:42.958Z,4
2017-02-24T06:48:42.900Z,4
2017-02-24T06:49:42.818Z,4
2017-02-24T06:50:42.776Z,4
2017-02-24T06:51:42.732Z,4
2017-02-24T06:52:42.659Z,4
2017-02-24T06:53:42.206Z,4
2017-02-24T06:54:42.524Z,4
2017-02-24T06:55:42.467Z,8
2017-02-24T06:56:42.406Z,4
2017-02-24T06:57:42.347Z,8
2017-02-24T06:58:41.884Z,8
2017-02-24T06:59:42.210Z,8
2017-02-24T07:00:42.154Z,8
2017-02-24T07:01:42.095Z,8
2017-02-24T07:02:42.028Z,8
2017-02-24T07:03:41.981Z,8
2017-02-24T07:04:41.571Z,8
2017-02-24T07:05:41.909Z,8
2017-02-24T07:06:41.585Z,8
2017-02-24T07:07:41.723Z,8
2017-02-24T07:08:41.265Z,8
2017-02-24T07:09:41.598Z,8
2017-02-24T07:10:41.615Z,8
2017-02-24T07:11:41.463Z,8
2017-02-24T07:12:41.401Z,8
2017-02-24T07:13:41.337Z,8
2017-02-24T07:14:41.294Z,8
2017-02-24T07:15:41.209Z,8
2017-02-24T07:16:41.202Z,8
2017-02-24T07:17:41.080Z,8
2017-02-24T07:18:41.061Z,12
2017-02-24T07:19:40.964Z,12
2017-02-24T07:20:40.894Z,8
2017-02-24T07:21:40.869Z,8
2017-02-24T07:22:40.777Z,12
2017-02-24T07:23:40.718Z,12
2017-02-24T07:24:40.261Z,12
2017-02-24T07:25:40.592Z,8
2017-02-24T07:26:39.787Z,8
2017-02-24T07:27:40.092Z,8
2017-02-24T07:28:40.027Z,12
2017-02-24T07:29:40.357Z,8
2017-02-24T07:30:40.317Z,8
2017-02-24T07:31:40.241Z,12
2017-02-24T07:32:40.163Z,12
2017-02-24T07:33:40.109Z,12
2017-02-24T07:34:40.022Z,12
2017-02-24T07:35:39.970Z,16
2017-02-24T07:36:39.895Z,12
2017-02-24T07:37:39.839Z,16
2017-02-24T07:38:39.781Z,12
2017-02-24T07:39:39.730Z,16
2017-02-24T07:40:39.652Z,16
2017-02-24T07:41:39.592Z,16
2017-02-24T07:42:39.553Z,12
2017-02-24T07:43:39.464Z,16
2017-02-24T07:44:39.408Z,16
2017-02-24T07:45:39.341Z,16
2017-02-24T07:46:39.279Z,16
2017-02-24T07:47:38.829Z,16
2017-02-24T07:48:38.820Z,16
2017-02-24T07:49:39.101Z,20
2017-02-24T07:50:39.046Z,20
2017-02-24T07:51:38.967Z,20
2017-02-24T07:52:38.908Z,20
2017-02-24T07:53:39.209Z,20
2017-02-24T07:54:38.410Z,16
2017-02-24T07:55:38.719Z,16
2017-02-24T07:56:38.674Z,16
2017-02-24T07:57:38.234Z,16
2017-02-24T07:58:38.553Z,20
2017-02-24T07:59:38.472Z,20
2017-02-24T08:00:38.440Z,20
2017-02-24T08:01:38.367Z,20
2017-02-24T08:02:38.292Z,20
2017-02-24T08:03:38.223Z,20
2017-02-24T08:04:38.176Z,16
2017-02-24T08:05:38.199Z,16
2017-02-24T08:06:38.039Z,16
2017-02-24T08:07:37.589Z,16
2017-02-24T08:08:37.909Z,16
2017-02-24T08:09:37.845Z,20
2017-02-24T08:10:37.708Z,24
2017-02-24T08:11:37.716Z,24
2017-02-24T08:12:37.697Z,20
2017-02-24T08:13:37.263Z,20
2017-02-24T08:14:37.168Z,20
2017-02-24T08:15:37.081Z,16
2017-02-24T08:16:37.035Z,16
2017-02-24T08:17:37.391Z,12
2017-02-24T08:18:37.283Z,12
2017-02-24T08:19:37.240Z,12
2017-02-24T08:20:37.156Z,8
2017-02-24T08:21:37.126Z,8
2017-02-24T08:22:37.048Z,8
2017-02-24T08:23:36.980Z,8
2017-02-24T08:24:36.923Z,8
2017-02-24T08:25:36.848Z,8
2017-02-24T08:26:36.800Z,12
2017-02-24T08:27:36.727Z,12
2017-02-24T08:28:36.674Z,16
2017-02-24T08:29:36.606Z,20
2017-02-24T08:30:36.668Z,20
2017-02-24T08:31:36.474Z,20
2017-02-24T08:32:36.428Z,20
2017-02-24T08:33:36.365Z,20
2017-02-24T08:34:36.323Z,16
2017-02-24T08:35:36.384Z,16
2017-02-24T08:36:35.793Z,20
2017-02-24T08:37:36.118Z,20
2017-02-24T08:38:35.659Z,20
2017-02-24T08:39:35.978Z,20
2017-02-24T08:40:35.913Z,20
2017-02-24T08:41:35.858Z,16
2017-02-24T08:42:35.782Z,12
2017-02-24T08:43:35.735Z,16
2017-02-24T08:44:35.685Z,16
2017-02-24T08:45:35.661Z,16
2017-02-24T08:46:35.550Z,12
2017-02-24T08:47:35.486Z,16
2017-02-24T08:48:35.424Z,16
2017-02-24T08:49:35.360Z,12
2017-02-24T08:50:34.902Z,12
2017-02-24T08:51:35.227Z,16
2017-02-24T08:52:35.197Z,16
2017-02-24T08:53:35.651Z,12
2017-02-24T08:54:35.043Z,12
2017-02-24T08:55:34.982Z,12
2017-02-24T08:56:34.667Z,12
2017-02-24T08:57:34.867Z,16
2017-02-24T08:58:34.802Z,16
2017-02-24T08:59:34.783Z,20
2017-02-24T09:00:34.680Z,16
2017-02-24T09:01:34.223Z,20
2017-02-24T09:02:34.544Z,16
2017-02-24T09:03:34.528Z,20
2017-02-24T09:04:34.431Z,20
2017-02-24T09:05:34.367Z,20
2017-02-24T09:06:34.289Z,20
2017-02-24T09:07:33.853Z,16
2017-02-24T09:08:34.166Z,16
2017-02-24T09:09:34.180Z,16
2017-02-24T09:10:33.269Z,20
2017-02-24T09:11:33.980Z,20
2017-02-24T09:12:33.589Z,16
2017-02-24T09:13:33.880Z,16
2017-02-24T09:14:33.415Z,16
2017-02-24T09:15:32.955Z,20
2017-02-24T09:16:33.673Z,20
2017-02-24T09:17:33.611Z,20
2017-02-24T09:18:33.573Z,20
2017-02-24T09:19:33.496Z,20
2017-02-24T09:20:33.064Z,20
2017-02-24T09:21:33.356Z,24
2017-02-24T09:22:32.938Z,20
2017-02-24T09:23:33.265Z,20
2017-02-24T09:24:33.188Z,20
2017-02-24T09:25:33.113Z,20
2017-02-24T09:26:33.050Z,24
2017-02-24T09:27:33.050Z,20
2017-02-24T09:28:32.949Z,20
2017-02-24T09:29:32.516Z,20
2017-02-24T09:30:32.416Z,20
2017-02-24T09:31:32.732Z,20
2017-02-24T09:32:32.672Z,24
2017-02-24T09:33:32.608Z,24
2017-02-24T09:34:32.546Z,20
2017-02-24T09:35:32.515Z,20
2017-02-24T09:36:32.429Z,20
2017-02-24T09:37:32.366Z,20
2017-02-24T09:38:32.309Z,20
2017-02-24T09:39:32.260Z,20
2017-02-24T09:40:32.197Z,20
2017-02-24T09:41:32.107Z,20
2017-02-24T09:42:32.066Z,24
2017-02-24T09:43:31.999Z,20
2017-02-24T09:44:31.948Z,20
2017-02-24T09:45:31.872Z,20
2017-02-24T09:46:31.425Z,20
2017-02-24T09:47:32.026Z,20
2017-02-24T09:48:31.684Z,20
2017-02-24T09:49:31.225Z,20
2017-02-24T09:50:31.869Z,20
2017-02-24T09:51:31.500Z,16
2017-02-24T09:52:31.430Z,16
2017-02-24T09:53:31.399Z,16
2017-02-24T09:54:31.349Z,20
2017-02-24T09:55:31.336Z,20
2017-02-24T09:56:31.666Z,16
2017-02-24T09:57:31.109Z,16
2017-02-24T09:58:31.097Z,20
2017-02-24T09:59:30.989Z,16
2017-02-24T10:00:30.940Z,20
2017-02-24T10:01:30.532Z,20
2017-02-24T10:02:30.047Z,24
2017-02-24T10:03:29.969Z,20
2017-02-24T10:04:30.292Z,20
2017-02-24T10:05:30.230Z,24
2017-02-24T10:06:30.169Z,24
2017-02-24T10:07:30.105Z,24
2017-02-24T10:08:30.454Z,24
2017-02-24T10:09:30.363Z,20
2017-02-24T10:10:30.326Z,24
2017-02-24T10:11:30.250Z,24
2017-02-24T10:12:30.175Z,24
2017-02-24T10:13:29.736Z,28
2017-02-24T10:14:29.699Z,24
2017-02-24T10:15:30.002Z,28
2017-02-24T10:16:29.948Z,28
2017-02-24T10:17:29.875Z,32
2017-02-24T10:18:29.436Z,32
2017-02-24T10:19:29.754Z,36
2017-02-24T10:20:29.703Z,36
2017-02-24T10:21:29.625Z,36
2017-02-24T10:22:29.567Z,36
2017-02-24T10:23:29.519Z,36
2017-02-24T10:24:29.434Z,36
2017-02-24T10:25:29.731Z,136
2017-02-24T10:26:29.312Z,164
2017-02-24T10:27:29.272Z,168
2017-02-24T10:28:29.215Z,168
2017-02-24T10:29:28.808Z,164
2017-02-24T10:30:28.932Z,164
2017-02-24T10:31:29.046Z,164
2017-02-24T10:32:28.975Z,164
2017-02-24T10:33:28.891Z,164
2017-02-24T10:34:28.818Z,160
2017-02-24T10:35:28.781Z,160
2017-02-24T10:36:28.422Z,160
2017-02-24T10:37:28.617Z,156
2017-02-24T10:38:28.189Z,156
2017-02-24T10:39:28.490Z,156
2017-02-24T10:40:28.505Z,156
2017-02-24T10:41:28.423Z,152
2017-02-24T10:42:28.056Z,152
2017-02-24T10:43:28.313Z,152
2017-02-24T10:44:28.263Z,152
2017-02-24T10:45:28.134Z,156
2017-02-24T10:46:27.716Z,152
2017-02-24T10:47:28.001Z,152
2017-02-24T10:48:27.942Z,152
2017-02-24T10:49:27.876Z,152
2017-02-24T10:50:27.748Z,148
2017-02-24T10:51:27.743Z,148
2017-02-24T10:52:27.295Z,144
2017-02-24T10:53:27.629Z,148
2017-02-24T10:54:27.569Z,148
2017-02-24T10:55:27.500Z,148
2017-02-24T10:56:27.086Z,152
2017-02-24T10:57:27.394Z,156
2017-02-24T10:58:27.135Z,160
2017-02-24T10:59:26.865Z,152
2017-02-24T11:00:27.201Z,164
2017-02-24T11:01:27.121Z,164
2017-02-24T11:02:26.677Z,164
2017-02-24T11:03:27.023Z,168
2017-02-24T11:04:26.791Z,164
2017-02-24T11:05:26.102Z,164
2017-02-24T11:06:26.830Z,164
2017-02-24T11:07:26.415Z,164
2017-02-24T11:08:26.687Z,164
2017-02-24T11:09:26.636Z,168
2017-02-24T11:10:26.602Z,168
2017-02-24T11:11:26.523Z,164
2017-02-24T11:12:26.440Z,168
2017-02-24T11:13:26.489Z,168
2017-02-24T11:14:26.343Z,168
2017-02-24T11:15:26.288Z,172
2017-02-24T11:16:25.470Z,168
2017-02-24T11:17:26.333Z,160
2017-02-24T11:18:26.066Z,156
2017-02-24T11:19:25.248Z,152
2017-02-24T11:20:25.576Z,148
2017-02-24T11:21:25.893Z,148
2017-02-24T11:22:25.835Z,148
2017-02-24T11:23:24.607Z,152
2017-02-24T11:24:25.712Z,152
2017-02-24T11:25:25.648Z,152
2017-02-24T11:26:25.599Z,160
2017-02-24T11:27:25.514Z,160
2017-02-24T11:28:25.077Z,164
2017-02-24T11:29:25.388Z,164
2017-02-24T11:30:25.355Z,168
2017-02-24T11:31:24.887Z,168
2017-02-24T11:32:24.817Z,172
2017-02-24T11:33:24.756Z,172
2017-02-24T11:34:25.149Z,168
2017-02-24T11:35:24.646Z,172
2017-02-24T11:36:24.973Z,168
2017-02-24T11:37:24.913Z,168
2017-02-24T11:38:24.831Z,168
2017-02-24T11:39:24.769Z,164
2017-02-24T11:40:24.714Z,168
2017-02-24T11:41:24.641Z,160
2017-02-24T11:42:24.586Z,164
2017-02-24T11:43:24.530Z,164
2017-02-24T11:44:24.075Z,160
2017-02-24T11:45:24.417Z,160
2017-02-24T11:46:24.348Z,160
2017-02-24T11:47:24.271Z,160
2017-02-24T11:48:24.216Z,156
2017-02-24T11:49:23.768Z,152
2017-02-24T11:50:23.700Z,152
2017-02-24T11:51:24.024Z,148
2017-02-24T11:52:23.966Z,148
2017-02-24T11:53:23.942Z,148
2017-02-24T11:54:23.868Z,148
2017-02-24T11:55:23.422Z,144
2017-02-24T11:56:23.967Z,144
2017-02-24T11:57:23.281Z,144
2017-02-24T11:58:23.645Z,144
2017-02-24T11:59:23.524Z,148
2017-02-24T12:00:23.448Z,140
2017-02-24T12:01:23.605Z,144
2017-02-24T12:02:22.973Z,144
2017-02-24T12:03:23.346Z,144
2017-02-24T12:04:23.290Z,144
2017-02-24T12:05:23.069Z,144
2017-02-24T12:06:23.107Z,144
2017-02-24T12:07:23.067Z,144
2017-02-24T12:08:22.617Z,148
2017-02-24T12:09:22.933Z,152
2017-02-24T12:10:22.905Z,152
2017-02-24T12:11:22.476Z,156
2017-02-24T12:12:22.746Z,156
2017-02-24T12:13:22.673Z,160
2017-02-24T12:14:22.237Z,164
2017-02-24T12:15:22.201Z,164
2017-02-24T12:16:22.469Z,164
2017-02-24T12:17:22.437Z,164
2017-02-24T12:18:22.344Z,164
2017-02-24T12:19:22.299Z,164
2017-02-24T12:20:22.226Z,164
2017-02-24T12:21:22.194Z,164
2017-02-24T12:22:21.740Z,164
2017-02-24T12:23:22.093Z,164
2017-02-24T12:24:21.983Z,160
2017-02-24T12:25:21.733Z,164
2017-02-24T12:26:21.947Z,160
2017-02-24T12:27:21.799Z,160
2017-02-24T12:28:21.353Z,168
2017-02-24T12:29:21.686Z,164
2017-02-24T12:30:21.266Z,164
2017-02-24T12:31:21.580Z,160
2017-02-24T12:32:21.486Z,164
2017-02-24T12:33:21.464Z,160
2017-02-24T12:34:21.401Z,160
2017-02-24T12:35:20.954Z,160
2017-02-24T12:36:20.920Z,160
2017-02-24T12:37:21.186Z,164
2017-02-24T12:38:21.106Z,164
2017-02-24T12:39:21.057Z,164
2017-02-24T12:40:21.017Z,164
2017-02-24T12:41:20.564Z,164
2017-02-24T12:42:20.875Z,164
2017-02-24T12:43:20.457Z,168
2017-02-24T12:44:20.358Z,172
2017-02-24T12:45:20.907Z,168
2017-02-24T12:46:20.650Z,172
2017-02-24T12:47:20.638Z,168
2017-02-24T12:48:20.493Z,160
2017-02-24T12:49:20.465Z,164
2017-02-24T12:50:20.398Z,164
2017-02-24T12:51:20.340Z,164
2017-02-24T12:52:20.324Z,164
2017-02-24T12:53:19.831Z,156
2017-02-24T12:54:19.795Z,160
2017-02-24T12:55:20.063Z,160
2017-02-24T12:56:20.014Z,160
2017-02-24T12:57:19.974Z,160
2017-02-24T12:58:19.916Z,160
2017-02-24T12:59:19.053Z,160
2017-02-24T13:00:19.782Z,156
2017-02-24T13:01:19.728Z,156
2017-02-24T13:02:18.899Z,160
2017-02-24T13:03:19.595Z,160
2017-02-24T13:04:19.555Z,156
2017-02-24T13:05:19.468Z,156
2017-02-24T13:06:19.016Z,152
2017-02-24T13:07:19.350Z,164
2017-02-24T13:08:18.973Z,168
2017-02-24T13:09:18.513Z,168
2017-02-24T13:10:19.198Z,44
2017-02-24T13:11:18.698Z,32
2017-02-24T13:12:18.341Z,32
2017-02-24T13:13:18.573Z,32
2017-02-24T13:14:18.932Z,28
2017-02-24T13:15:18.876Z,32
2017-02-24T13:16:18.501Z,24
2017-02-24T13:17:18.397Z,24
2017-02-24T13:18:18.288Z,24
2017-02-24T13:19:18.660Z,24
2017-02-24T13:20:17.768Z,20
2017-02-24T13:21:18.500Z,24
2017-02-24T13:22:18.487Z,24
2017-02-24T13:23:17.592Z,28
2017-02-24T13:24:18.343Z,32
2017-02-24T13:25:17.753Z,28
2017-02-24T13:26:17.777Z,32
2017-02-24T13:27:18.103Z,36
2017-02-24T13:28:18.049Z,28
2017-02-24T13:29:17.996Z,24
2017-02-24T13:30:17.777Z,20
2017-02-24T13:31:17.475Z,20
2017-02-24T13:32:17.432Z,20
2017-02-24T13:33:17.459Z,20
2017-02-24T13:34:17.286Z,28
2017-02-24T13:35:17.616Z,28
2017-02-24T13:36:17.229Z,36
2017-02-24T13:37:17.486Z,20
2017-02-24T13:38:17.427Z,20
2017-02-24T13:39:17.372Z,20
2017-02-24T13:40:17.442Z,20
2017-02-24T13:41:17.046Z,32
2017-02-24T13:42:16.811Z,28
2017-02-24T13:43:16.774Z,24
2017-02-24T13:44:17.111Z,28
2017-02-24T13:45:17.016Z,28
2017-02-24T13:46:16.546Z,20
2017-02-24T13:47:16.539Z,24
2017-02-24T13:48:16.806Z,28
2017-02-24T13:49:16.752Z,28
2017-02-24T13:50:16.835Z,32
2017-02-24T13:51:16.287Z,28
2017-02-24T13:52:16.634Z,28
2017-02-24T13:53:16.499Z,32
2017-02-24T13:54:16.466Z,32
2017-02-24T13:55:16.446Z,24
2017-02-24T13:56:16.322Z,32
2017-02-24T13:57:15.998Z,32
2017-02-24T13:58:16.223Z,28
2017-02-24T13:59:15.791Z,28
2017-02-24T14:00:16.568Z,28
2017-02-24T14:01:16.001Z,28
2017-02-24T14:02:16.013Z,28
2017-02-24T14:03:15.870Z,24
2017-02-24T14:04:15.454Z,24
2017-02-24T14:05:15.424Z,24
2017-02-24T14:06:15.693Z,24
2017-02-24T14:07:15.633Z,20
2017-02-24T14:08:15.198Z,24
2017-02-24T14:09:15.529Z,20
2017-02-24T14:10:15.068Z,24
2017-02-24T14:11:15.450Z,24
2017-02-24T14:12:14.937Z,24
2017-02-24T14:13:15.255Z,24
2017-02-24T14:14:15.189Z,24
2017-02-24T14:15:15.148Z,24
2017-02-24T14:16:14.703Z,28
2017-02-24T14:17:15.201Z,28
2017-02-24T14:18:14.967Z,28
2017-02-24T14:19:14.907Z,28
2017-02-24T14:20:14.524Z,24
2017-02-24T14:21:14.377Z,24
2017-02-24T14:22:14.710Z,24
2017-02-24T14:23:14.638Z,24
2017-02-24T14:24:14.589Z,24
2017-02-24T14:25:14.139Z,24
2017-02-24T14:26:14.440Z,124